Aviation Digital Data Service (ADDS)

Output produced by METARs form (1516 UTC 19 January 2018)
found at http://aviationweather.gov/adds/metars/
 
KBTR 191453Z 00000KT 10SM BKN055 OVC080 03/M04 A3039 RMK AO2 SLP291 T00281039 53005